createdAt,value
2022-08-28T00:00:26.011Z,13.33
2022-08-28T00:02:54.360Z,14.63
2022-08-28T00:05:23.548Z,12.80
2022-08-28T00:07:51.200Z,15.70
2022-08-28T00:10:20.318Z,10.27
2022-08-28T00:12:50.596Z,16.80
2022-08-28T00:15:22.317Z,13.93
2022-08-28T00:17:49.548Z,18.27
2022-08-28T00:20:18.750Z,12.20
2022-08-28T00:22:47.065Z,18.40
2022-08-28T00:25:15.847Z,14.73
2022-08-28T00:27:54.961Z,9.57
2022-08-28T00:30:41.671Z,14.47
2022-08-28T00:33:17.004Z,12.17
2022-08-28T00:35:46.006Z,15.10
2022-08-28T00:38:13.975Z,10.20
2022-08-28T00:40:44.467Z,14.60
2022-08-28T00:43:22.629Z,10.70
2022-08-28T00:45:49.409Z,14.80
2022-08-28T00:48:16.204Z,13.17
2022-08-28T00:51:01.747Z,13.33
2022-08-28T00:53:33.194Z,9.40
2022-08-28T00:56:04.129Z,13.70
2022-08-28T00:58:34.139Z,15.83
2022-08-28T01:01:01.611Z,10.80
2022-08-28T01:03:28.525Z,16.93
2022-08-28T01:05:55.870Z,12.03
2022-08-28T01:08:22.985Z,12.70
2022-08-28T01:10:55.506Z,11.60
2022-08-28T01:13:24.434Z,12.10
2022-08-28T01:15:51.671Z,20.40
2022-08-28T01:18:20.185Z,17.00
2022-08-28T01:21:06.649Z,16.60
2022-08-28T01:23:53.792Z,14.20
2022-08-28T01:26:21.859Z,14.73
2022-08-28T01:28:48.944Z,14.23
2022-08-28T01:31:17.239Z,14.57
2022-08-28T01:33:46.010Z,13.40
2022-08-28T01:36:14.257Z,13.80
2022-08-28T01:38:43.839Z,14.03
2022-08-28T01:41:14.084Z,13.67
2022-08-28T01:43:42.972Z,11.50
2022-08-28T01:46:12.286Z,11.57
2022-08-28T01:48:42.621Z,12.97
2022-08-28T01:51:11.404Z,15.93
2022-08-28T01:53:39.370Z,14.43
2022-08-28T01:56:11.110Z,10.83
2022-08-28T01:58:38.877Z,10.70
2022-08-28T02:01:14.766Z,10.80
2022-08-28T02:03:43.251Z,10.80
2022-08-28T02:06:11.124Z,13.50
2022-08-28T02:08:38.115Z,12.77
2022-08-28T02:11:06.398Z,11.23
2022-08-28T02:13:35.042Z,12.87
2022-08-28T02:16:02.153Z,12.30
2022-08-28T02:18:29.120Z,14.60
2022-08-28T02:20:56.045Z,10.90
2022-08-28T02:23:22.882Z,11.70
2022-08-28T02:25:49.917Z,10.80
2022-08-28T02:28:17.794Z,14.60
2022-08-28T02:30:44.745Z,16.77
2022-08-28T02:33:11.614Z,11.37
2022-08-28T02:35:40.263Z,12.50
2022-08-28T02:38:07.272Z,13.53
2022-08-28T02:40:34.093Z,16.30
2022-08-28T02:43:00.932Z,13.50
2022-08-28T02:45:27.684Z,16.13
2022-08-28T02:47:56.795Z,18.00
2022-08-28T02:50:24.100Z,13.30
2022-08-28T02:52:52.094Z,15.30
2022-08-28T02:55:20.173Z,14.87
2022-08-28T02:57:48.509Z,17.63
2022-08-28T03:00:20.198Z,11.33
2022-08-28T03:02:48.078Z,8.37
2022-08-28T03:05:17.200Z,13.97
2022-08-28T03:07:44.148Z,16.87
2022-08-28T03:10:11.754Z,15.00
2022-08-28T03:12:39.319Z,15.33
2022-08-28T03:15:07.693Z,11.70
2022-08-28T03:17:36.592Z,12.33
2022-08-28T03:20:06.469Z,8.93
2022-08-28T03:22:51.867Z,10.03
2022-08-28T03:25:19.019Z,11.07
2022-08-28T03:27:45.884Z,10.23
2022-08-28T03:30:14.063Z,12.63
2022-08-28T03:32:41.139Z,10.70
2022-08-28T03:35:08.550Z,13.67
2022-08-28T03:37:35.830Z,10.17
2022-08-28T03:40:03.489Z,10.17
2022-08-28T03:42:31.116Z,18.73
2022-08-28T03:44:59.339Z,11.67
2022-08-28T03:47:28.280Z,10.37
2022-08-28T03:49:57.989Z,13.60
2022-08-28T03:52:25.350Z,15.27
2022-08-28T03:54:52.754Z,10.33
2022-08-28T03:57:21.590Z,13.83
2022-08-28T03:59:50.986Z,18.80
2022-08-28T04:02:20.624Z,13.60
2022-08-28T04:04:49.463Z,14.47
2022-08-28T04:07:17.501Z,12.80
2022-08-28T04:09:44.796Z,9.67
2022-08-28T04:12:11.769Z,9.70
2022-08-28T04:14:38.719Z,11.17
2022-08-28T04:17:06.636Z,12.97
2022-08-28T04:19:33.849Z,13.13
2022-08-28T04:22:01.293Z,13.87
2022-08-28T04:24:28.145Z,10.10
2022-08-28T04:26:55.048Z,13.77
2022-08-28T04:29:23.046Z,9.60
2022-08-28T04:31:50.435Z,11.57
2022-08-28T04:34:18.054Z,10.43
2022-08-28T04:36:46.070Z,11.27
2022-08-28T04:39:13.244Z,10.33
2022-08-28T04:41:40.434Z,10.67
2022-08-28T04:44:07.902Z,11.00
2022-08-28T04:46:35.555Z,9.83
2022-08-28T04:49:04.274Z,11.50
2022-08-28T04:51:32.194Z,9.80
2022-08-28T04:54:01.539Z,14.53
2022-08-28T04:56:28.324Z,8.90
2022-08-28T04:58:55.285Z,10.30
2022-08-28T05:01:27.058Z,8.93
2022-08-28T05:03:57.808Z,10.60
2022-08-28T05:06:26.930Z,10.27
2022-08-28T05:08:59.056Z,9.47
2022-08-28T05:11:34.345Z,12.17
2022-08-28T05:14:15.966Z,10.07
2022-08-28T05:16:49.196Z,11.33
2022-08-28T05:19:18.744Z,9.57
2022-08-28T05:21:46.298Z,13.90
2022-08-28T05:24:13.922Z,9.87
2022-08-28T05:26:41.215Z,13.37
2022-08-28T05:29:09.976Z,10.37
2022-08-28T05:31:39.231Z,13.20
2022-08-28T05:34:06.969Z,10.63
2022-08-28T05:36:36.434Z,14.67
2022-08-28T05:39:06.805Z,8.50
2022-08-28T05:41:34.316Z,10.63
2022-08-28T05:44:03.832Z,9.90
2022-08-28T05:46:31.408Z,6.80
2022-08-28T05:49:00.261Z,10.07
2022-08-28T05:51:27.678Z,12.97
2022-08-28T05:53:55.702Z,9.33
2022-08-28T05:56:29.500Z,8.97
2022-08-28T05:58:57.803Z,9.57
2022-08-28T06:01:28.723Z,8.27
2022-08-28T06:03:58.940Z,7.70
2022-08-28T06:06:29.284Z,6.87
2022-08-28T06:09:01.722Z,11.10
2022-08-28T06:11:30.764Z,13.77
2022-08-28T06:14:01.770Z,8.93
2022-08-28T06:16:31.252Z,11.37
2022-08-28T06:18:58.504Z,8.83
2022-08-28T06:21:26.055Z,10.57
2022-08-28T06:23:52.947Z,11.27
2022-08-28T06:26:19.905Z,9.97
2022-08-28T06:28:46.738Z,9.73
2022-08-28T06:31:24.529Z,6.70
2022-08-28T06:33:57.489Z,11.53
2022-08-28T06:36:27.543Z,8.67
2022-08-28T06:38:58.148Z,10.97
2022-08-28T06:41:25.697Z,10.17
2022-08-28T06:43:52.592Z,9.97
2022-08-28T06:46:19.676Z,9.83
2022-08-28T06:48:46.539Z,9.03
2022-08-28T06:51:14.377Z,7.93
2022-08-28T06:53:43.316Z,7.45
2022-08-28T06:56:18.447Z,7.65
2022-08-28T06:58:55.173Z,10.52
2022-08-28T07:01:29.598Z,11.27
2022-08-28T07:03:59.883Z,10.55
2022-08-28T07:06:27.549Z,8.02
2022-08-28T07:08:54.375Z,9.70
2022-08-28T07:11:28.851Z,6.22
2022-08-28T07:13:56.897Z,9.60
2022-08-28T07:16:27.018Z,10.60
2022-08-28T07:18:54.119Z,10.93
2022-08-28T07:21:21.083Z,9.38
2022-08-28T07:23:48.463Z,7.22
2022-08-28T07:26:20.953Z,9.65
2022-08-28T07:28:47.852Z,6.72
2022-08-28T07:31:21.204Z,8.38
2022-08-28T07:33:49.999Z,13.40
2022-08-28T07:36:29.242Z,7.97
2022-08-28T07:38:58.908Z,11.27
2022-08-28T07:41:31.084Z,10.60
2022-08-28T07:44:16.636Z,10.50
2022-08-28T07:46:44.857Z,8.98
2022-08-28T07:49:13.016Z,9.85
2022-08-28T07:51:39.853Z,6.60
2022-08-28T07:54:11.203Z,8.40
2022-08-28T07:56:45.096Z,9.63
2022-08-28T07:59:16.718Z,8.18
2022-08-28T08:01:47.016Z,8.90
2022-08-28T08:04:16.202Z,11.13
2022-08-28T08:06:44.061Z,6.75
2022-08-28T08:09:15.144Z,8.95
2022-08-28T08:11:42.444Z,9.50
2022-08-28T08:14:09.981Z,10.10
2022-08-28T08:16:40.446Z,7.85
2022-08-28T08:19:14.001Z,6.53
2022-08-28T08:21:43.568Z,6.93
2022-08-28T08:24:12.983Z,10.40
2022-08-28T08:26:59.846Z,6.70
2022-08-28T08:29:35.373Z,7.10
2022-08-28T08:32:07.174Z,10.82
2022-08-28T08:34:36.704Z,12.15
2022-08-28T08:37:04.233Z,6.03
2022-08-28T08:39:31.777Z,12.10
2022-08-28T08:42:00.732Z,10.93
2022-08-28T08:44:43.563Z,8.97
2022-08-28T08:47:14.100Z,6.15
2022-08-28T08:49:50.786Z,5.65
2022-08-28T08:52:52.008Z,7.13
2022-08-28T08:55:35.570Z,9.50
2022-08-28T08:58:07.867Z,5.60
2022-08-28T09:00:57.562Z,7.87
2022-08-28T09:03:32.559Z,5.53
2022-08-28T09:06:03.981Z,8.13
2022-08-28T09:08:40.011Z,3.53
2022-08-28T09:11:36.766Z,7.78
2022-08-28T09:14:32.953Z,6.72
2022-08-28T09:17:00.677Z,6.78
2022-08-28T09:19:29.112Z,6.10
2022-08-28T09:21:56.420Z,7.57
2022-08-28T09:24:24.714Z,6.22
2022-08-28T09:26:56.795Z,6.75
2022-08-28T09:29:35.941Z,9.63
2022-08-28T09:32:30.561Z,4.30
2022-08-28T09:35:14.571Z,6.00
2022-08-28T09:37:44.154Z,7.13
2022-08-28T09:40:24.891Z,4.43
2022-08-28T09:43:28.919Z,8.57
2022-08-28T09:46:16.454Z,5.65
2022-08-28T09:48:45.724Z,6.63
2022-08-28T09:51:21.562Z,11.02
2022-08-28T09:53:51.149Z,4.03
2022-08-28T09:56:42.306Z,5.53
2022-08-28T09:59:15.201Z,5.07
2022-08-28T10:01:45.150Z,7.67
2022-08-28T10:04:31.531Z,3.73
2022-08-28T10:07:05.557Z,7.00
2022-08-28T10:09:52.577Z,7.50
2022-08-28T10:12:46.723Z,5.13
2022-08-28T10:15:43.352Z,3.60
2022-08-28T10:18:35.222Z,5.97
2022-08-28T10:21:28.058Z,7.03
2022-08-28T10:24:27.689Z,6.07
2022-08-28T10:27:04.987Z,9.05
2022-08-28T10:29:40.668Z,5.28
2022-08-28T10:32:29.891Z,6.22
2022-08-28T10:35:07.898Z,7.93
2022-08-28T10:37:52.840Z,5.13
2022-08-28T10:40:34.691Z,8.38
2022-08-28T10:43:40.418Z,4.80
2022-08-28T10:46:21.318Z,5.32
2022-08-28T10:48:59.680Z,8.70
2022-08-28T10:51:44.446Z,6.10
2022-08-28T10:54:17.106Z,6.80
2022-08-28T10:56:56.287Z,6.25
2022-08-28T10:59:25.811Z,6.38
2022-08-28T11:01:52.986Z,8.00
2022-08-28T11:04:25.594Z,5.22
2022-08-28T11:07:02.303Z,5.03
2022-08-28T11:09:32.285Z,6.63
2022-08-28T11:12:10.135Z,6.53
2022-08-28T11:14:47.863Z,5.97
2022-08-28T11:17:30.573Z,6.70
2022-08-28T11:20:09.721Z,5.10
2022-08-28T11:23:09.998Z,6.90
2022-08-28T11:25:48.812Z,5.30
2022-08-28T11:28:39.326Z,5.65
2022-08-28T11:31:06.151Z,6.00
2022-08-28T11:33:53.026Z,6.38
2022-08-28T11:36:19.820Z,4.13
2022-08-28T11:39:00.140Z,5.55
2022-08-28T11:41:33.516Z,4.28
2022-08-28T11:44:09.142Z,5.55
2022-08-28T11:46:42.876Z,6.45
2022-08-28T11:49:26.259Z,7.55
2022-08-28T11:52:00.102Z,4.70
2022-08-28T11:54:38.661Z,9.40
2022-08-28T11:57:05.438Z,8.57
2022-08-28T12:00:04.986Z,5.22
2022-08-28T12:02:40.726Z,6.88
2022-08-28T12:05:16.098Z,4.90
2022-08-28T12:07:48.922Z,6.25
2022-08-28T12:10:24.682Z,6.50
2022-08-28T12:12:56.252Z,5.80
2022-08-28T12:15:29.693Z,4.82
2022-08-28T12:18:02.574Z,7.57
2022-08-28T12:20:35.849Z,6.35
2022-08-28T12:23:30.305Z,6.00
2022-08-28T12:26:20.446Z,4.82
2022-08-28T12:28:58.809Z,4.55
2022-08-28T12:32:12.399Z,8.95
2022-08-28T12:34:45.672Z,6.57
2022-08-28T12:37:52.659Z,3.58
2022-08-28T12:40:38.299Z,5.85
2022-08-28T12:43:10.276Z,7.13
2022-08-28T12:45:48.629Z,4.72
2022-08-28T12:48:26.559Z,5.82
2022-08-28T12:51:08.523Z,6.32
2022-08-28T12:53:47.264Z,5.03
2022-08-28T12:56:17.160Z,5.82
2022-08-28T12:58:45.256Z,6.70
2022-08-28T13:01:33.351Z,5.78
2022-08-28T13:04:04.727Z,4.60
2022-08-28T13:06:36.035Z,2.97
2022-08-28T13:09:25.765Z,7.10
2022-08-28T13:11:52.754Z,5.68
2022-08-28T13:14:50.944Z,5.38
2022-08-28T13:17:43.884Z,6.43
2022-08-28T13:20:31.411Z,3.70
2022-08-28T13:23:02.817Z,5.30
2022-08-28T13:25:34.490Z,6.15
2022-08-28T13:28:04.925Z,7.10
2022-08-28T13:30:35.398Z,4.47
2022-08-28T13:33:06.893Z,5.90
2022-08-28T13:35:39.985Z,3.20
2022-08-28T13:38:10.096Z,4.93
2022-08-28T13:40:58.512Z,5.07
2022-08-28T13:43:29.066Z,7.65
2022-08-28T13:45:55.945Z,3.92
2022-08-28T13:48:25.647Z,3.80
2022-08-28T13:51:03.149Z,4.35
2022-08-28T13:53:31.932Z,4.45
2022-08-28T13:56:00.381Z,5.35
2022-08-28T13:58:28.299Z,3.85
2022-08-28T14:00:55.588Z,4.28
2022-08-28T14:03:41.231Z,7.00
2022-08-28T14:06:11.691Z,5.13
2022-08-28T14:08:40.990Z,6.72
2022-08-28T14:11:08.469Z,7.45
2022-08-28T14:13:40.382Z,3.72
2022-08-28T14:16:16.784Z,5.03
2022-08-28T14:18:43.787Z,4.68
2022-08-28T14:21:10.608Z,4.18
2022-08-28T14:23:37.469Z,7.00
2022-08-28T14:26:05.821Z,4.63
2022-08-28T14:28:32.838Z,4.65
2022-08-28T14:30:59.645Z,2.92
2022-08-28T14:33:26.590Z,6.82
2022-08-28T14:35:55.030Z,4.25
2022-08-28T14:38:21.888Z,4.63
2022-08-28T14:40:49.379Z,4.32
2022-08-28T14:43:16.512Z,8.50
2022-08-28T14:45:46.293Z,5.15
2022-08-28T14:48:14.641Z,4.53
2022-08-28T14:50:44.043Z,4.35
2022-08-28T14:53:11.354Z,8.50
2022-08-28T14:55:49.693Z,4.20
2022-08-28T14:58:18.576Z,4.32
2022-08-28T15:00:49.249Z,4.32
2022-08-28T15:03:18.134Z,3.85
2022-08-28T15:05:46.063Z,3.75
2022-08-28T15:08:16.167Z,4.85
2022-08-28T15:10:44.505Z,5.45
2022-08-28T15:13:12.736Z,4.82
2022-08-28T15:15:42.233Z,3.50
2022-08-28T15:18:10.833Z,4.93
2022-08-28T15:20:46.394Z,5.07
2022-08-28T15:23:14.967Z,5.53
2022-08-28T15:25:42.703Z,4.70
2022-08-28T15:28:09.918Z,4.65
2022-08-28T15:30:37.037Z,7.32
2022-08-28T15:33:04.613Z,7.35
2022-08-28T15:35:31.667Z,8.07
2022-08-28T15:37:58.463Z,6.22
2022-08-28T15:40:44.276Z,6.28
2022-08-28T15:43:11.118Z,4.30
2022-08-28T15:45:39.942Z,5.05
2022-08-28T15:48:08.849Z,6.65
2022-08-28T15:50:35.996Z,6.10
2022-08-28T15:53:04.532Z,5.35
2022-08-28T15:55:34.004Z,5.07
2022-08-28T15:58:04.227Z,5.05
2022-08-28T16:00:35.691Z,6.32
2022-08-28T16:03:03.381Z,4.60
2022-08-28T16:05:35.170Z,6.22
2022-08-28T16:08:06.500Z,5.90
2022-08-28T16:10:33.334Z,4.72
2022-08-28T16:13:01.238Z,6.65
2022-08-28T16:15:29.324Z,6.07
2022-08-28T16:17:56.269Z,5.90
2022-08-28T16:20:23.250Z,5.72
2022-08-28T16:22:51.667Z,5.35
2022-08-28T16:25:18.707Z,5.03
2022-08-28T16:27:45.615Z,8.00
2022-08-28T16:30:15.863Z,6.43
2022-08-28T16:32:47.039Z,4.95
2022-08-28T16:35:15.188Z,4.22
2022-08-28T16:37:42.939Z,2.97
2022-08-28T16:40:11.139Z,7.97
2022-08-28T16:42:38.658Z,6.85
2022-08-28T16:45:06.695Z,4.10
2022-08-28T16:47:35.287Z,3.92
2022-08-28T16:50:11.993Z,4.82
2022-08-28T16:52:39.772Z,6.30
2022-08-28T16:55:09.076Z,6.25
2022-08-28T16:57:36.735Z,5.75
2022-08-28T17:00:06.606Z,4.77
2022-08-28T17:02:34.523Z,6.40
2022-08-28T17:05:03.319Z,2.40
2022-08-28T17:07:30.286Z,5.90
2022-08-28T17:09:57.249Z,4.75
2022-08-28T17:12:24.184Z,4.90
2022-08-28T17:14:51.043Z,5.93
2022-08-28T17:17:17.957Z,5.13
2022-08-28T17:19:45.912Z,4.83
2022-08-28T17:22:32.074Z,6.35
2022-08-28T17:25:09.459Z,4.43
2022-08-28T17:27:36.754Z,5.37
2022-08-28T17:30:05.114Z,6.57
2022-08-28T17:32:32.250Z,8.30
2022-08-28T17:34:59.727Z,5.63
2022-08-28T17:37:26.622Z,8.20
2022-08-28T17:39:53.705Z,6.57
2022-08-28T17:42:21.043Z,5.80
2022-08-28T17:44:47.923Z,5.33
2022-08-28T17:47:14.770Z,6.10
2022-08-28T17:49:41.687Z,4.43
2022-08-28T17:52:08.585Z,4.70
2022-08-28T17:54:35.571Z,9.87
2022-08-28T17:57:03.009Z,8.27
2022-08-28T17:59:30.588Z,9.40
2022-08-28T18:01:57.582Z,5.20
2022-08-28T18:04:24.880Z,8.17
2022-08-28T18:06:54.348Z,8.17
2022-08-28T18:09:22.265Z,7.00
2022-08-28T18:11:49.381Z,7.53
2022-08-28T18:14:16.330Z,4.77
2022-08-28T18:16:43.696Z,6.30
2022-08-28T18:19:11.799Z,5.37
2022-08-28T18:21:40.170Z,8.80
2022-08-28T18:24:07.421Z,7.43
2022-08-28T18:26:34.712Z,9.07
2022-08-28T18:29:01.686Z,6.07
2022-08-28T18:31:28.761Z,7.53
2022-08-28T18:33:55.693Z,5.17
2022-08-28T18:36:23.335Z,5.33
2022-08-28T18:38:51.316Z,9.00
2022-08-28T18:41:22.154Z,8.13
2022-08-28T18:43:57.846Z,6.53
2022-08-28T18:46:31.586Z,5.87
2022-08-28T18:48:59.087Z,8.43
2022-08-28T18:51:26.211Z,11.17
2022-08-28T18:53:53.106Z,7.43
2022-08-28T18:56:20.007Z,6.40
2022-08-28T18:58:47.885Z,5.83
2022-08-28T19:01:15.956Z,7.67
2022-08-28T19:03:43.082Z,6.13
2022-08-28T19:06:13.106Z,7.37
2022-08-28T19:08:40.054Z,10.67
2022-08-28T19:11:11.896Z,10.37
2022-08-28T19:13:39.630Z,7.97
2022-08-28T19:16:07.397Z,7.27
2022-08-28T19:18:34.598Z,8.27
2022-08-28T19:21:16.613Z,5.23
2022-08-28T19:23:55.409Z,7.37
2022-08-28T19:26:33.227Z,8.37
2022-08-28T19:29:01.075Z,6.23
2022-08-28T19:31:28.831Z,6.57
2022-08-28T19:33:56.358Z,4.90
2022-08-28T19:36:27.318Z,4.60
2022-08-28T19:38:54.521Z,6.70
2022-08-28T19:41:23.257Z,7.60
2022-08-28T19:43:50.891Z,6.03
2022-08-28T19:46:21.249Z,7.30
2022-08-28T19:48:50.506Z,4.80
2022-08-28T19:51:20.069Z,7.63
2022-08-28T19:53:59.881Z,6.93
2022-08-28T19:56:33.800Z,7.70
2022-08-28T19:59:02.880Z,9.10
2022-08-28T20:01:32.933Z,8.57
2022-08-28T20:04:10.323Z,8.20
2022-08-28T20:06:37.673Z,8.23
2022-08-28T20:09:10.631Z,10.30
2022-08-28T20:11:39.625Z,8.57
2022-08-28T20:14:07.357Z,9.03
2022-08-28T20:16:37.891Z,7.33
2022-08-28T20:19:10.280Z,6.67
2022-08-28T20:21:39.410Z,7.73
2022-08-28T20:24:09.488Z,9.27
2022-08-28T20:26:37.129Z,5.93
2022-08-28T20:29:06.794Z,7.07
2022-08-28T20:31:34.700Z,9.40
2022-08-28T20:34:02.071Z,6.33
2022-08-28T20:36:28.982Z,5.07
2022-08-28T20:38:55.922Z,5.77
2022-08-28T20:41:23.113Z,5.77
2022-08-28T20:43:51.510Z,14.93
2022-08-28T20:46:18.621Z,5.63
2022-08-28T20:48:45.850Z,8.57
2022-08-28T20:51:13.100Z,6.93
2022-08-28T20:53:40.274Z,10.83
2022-08-28T20:56:10.492Z,7.17
2022-08-28T20:58:38.462Z,6.07
2022-08-28T21:01:05.660Z,7.97
2022-08-28T21:03:32.626Z,6.00
2022-08-28T21:05:59.497Z,4.00
2022-08-28T21:08:26.406Z,5.93
2022-08-28T21:10:54.004Z,6.97
2022-08-28T21:13:21.735Z,8.57
2022-08-28T21:15:48.565Z,4.97
2022-08-28T21:18:15.944Z,8.37
2022-08-28T21:20:43.095Z,9.80
2022-08-28T21:23:10.510Z,11.57
2022-08-28T21:25:39.694Z,6.83
2022-08-28T21:28:06.763Z,7.70
2022-08-28T21:30:34.226Z,7.03
2022-08-28T21:33:01.102Z,8.17
2022-08-28T21:35:28.620Z,9.80
2022-08-28T21:37:55.449Z,9.53
2022-08-28T21:40:22.456Z,6.67
2022-08-28T21:42:49.517Z,5.73
2022-08-28T21:45:16.413Z,7.93
2022-08-28T21:47:43.416Z,8.60
2022-08-28T21:50:10.917Z,7.93
2022-08-28T21:52:38.034Z,7.23
2022-08-28T21:55:10.250Z,5.80
2022-08-28T21:57:37.077Z,5.83
2022-08-28T22:00:11.997Z,5.50
2022-08-28T22:02:39.031Z,8.20
2022-08-28T22:05:06.243Z,5.37
2022-08-28T22:07:33.280Z,6.70
2022-08-28T22:10:00.209Z,6.83
2022-08-28T22:12:27.157Z,6.03
2022-08-28T22:14:54.347Z,7.00
2022-08-28T22:17:21.389Z,6.47
2022-08-28T22:19:48.335Z,4.90
2022-08-28T22:22:34.198Z,7.07
2022-08-28T22:25:01.136Z,9.50
2022-08-28T22:27:28.039Z,6.00
2022-08-28T22:29:55.698Z,8.37
2022-08-28T22:32:25.730Z,9.93
2022-08-28T22:34:54.137Z,5.77
2022-08-28T22:37:21.865Z,7.77
2022-08-28T22:39:48.921Z,6.00
2022-08-28T22:42:15.900Z,9.17
2022-08-28T22:44:42.924Z,8.07
2022-08-28T22:47:09.735Z,7.67
2022-08-28T22:49:39.525Z,6.03
2022-08-28T22:52:10.026Z,8.27
2022-08-28T22:54:37.175Z,9.70
2022-08-28T22:57:05.728Z,5.73
2022-08-28T22:59:32.827Z,8.00
2022-08-28T23:01:59.750Z,9.37
2022-08-28T23:04:27.175Z,7.47
2022-08-28T23:06:54.809Z,9.73
2022-08-28T23:09:21.669Z,8.53
2022-08-28T23:11:49.541Z,11.93
2022-08-28T23:14:16.458Z,6.13
2022-08-28T23:16:44.126Z,7.87
2022-08-28T23:19:13.418Z,4.30
2022-08-28T23:21:43.613Z,6.67
2022-08-28T23:24:16.138Z,5.97
2022-08-28T23:26:44.674Z,8.80
2022-08-28T23:29:12.665Z,5.23
2022-08-28T23:31:39.609Z,8.50
2022-08-28T23:34:07.239Z,7.83
2022-08-28T23:36:35.871Z,8.33
2022-08-28T23:39:04.563Z,9.10
2022-08-28T23:41:32.563Z,7.67
2022-08-28T23:43:59.635Z,7.13
2022-08-28T23:46:26.710Z,7.30
2022-08-28T23:48:53.535Z,7.17
2022-08-28T23:51:21.946Z,10.30
2022-08-28T23:53:49.235Z,6.57
2022-08-28T23:56:17.029Z,4.97
2022-08-28T23:58:45.101Z,6.73
